Terminal Aerodrome Forecast
Issued by NWS Melbourne, FL

Home | Current Version | Previous Version | Text Only | Print | Product List | Glossary On
Versions: 1 2 3 4 5 6 7 8 9 10 11 12 13 14 15 16 17 18 19 20 21 22 23 24 25 26 27
000
FTUS42 KMLB 062323
TAFMCO
TAF
KMCO 062323Z 0700/0724 01014KT P6SM BKN008 OVC018
     FM070200 02017G24KT P6SM OVC008
     FM070600 36015KT P6SM OVC004
     FM071400 01016KT P6SM FEW008 OVC020
     FM072000 04012KT P6SM SCT020 BKN030=

USA.gov is the U.S. government's official web portal to all federal, state and local government web resources and services.